»·PEaware :: N2095K KBFL-KMHV

N2095K :: KBFL-KMHV

FLIGHT INFORMATION

Flight Status: Arrived
Operator: Privately registered:
United States
More flights under this callsign
Pilot: Vinicius U. (17612)
Aircraft: CESSNA 172 SKYHAWK
(C172)
More flights by this aircraft type
Origin: KBFL Meadows
United States
Destination: KMHV Mojave
United States
More flights between these airports :: More routes between these airports
Route: +
File this flight plan on PilotEdge
Remarks:
Altitude:
(Current/Filed)
0ft
Speed:
(Current/Filed)
0kts
Departed: 30-Dec-17 09:28 AM
Arrived: 30-Dec-17 10:04 AM
Distance/Time
Traveled:
50nm/0:36
Distance/Time
To Go:
Arrived

Flight Plot

Page will automatically refresh every two minutes.


Map Options




Map Legend


Flown Route
Filed Route
Departure Airport
Arrival Airport
Navaid (VOR, NDB)
Fix

Horizontal Profiles

Position Reports

Time Latitude Longitude Heading Altitude Ground
Speed
30-Dec-17 09:23 35.426253 -119.041502 1 510ft 0kts
30-Dec-17 09:24 35.426253 -119.041502 1 510ft 0kts
30-Dec-17 09:25 35.426254 -119.041502 1 510ft 0kts
30-Dec-17 09:26 35.426256 -119.041502 1 510ft 0kts
30-Dec-17 09:27 35.426258 -119.041502 1 510ft 0kts
30-Dec-17 09:28 35.426259 -119.041502 1 510ft 0kts
30-Dec-17 09:29 35.426377 -119.042269 276 510ft 16kts
30-Dec-17 09:30 35.426021 -119.045686 229 510ft 0kts
30-Dec-17 09:31 35.426020 -119.045689 229 510ft 0kts
30-Dec-17 09:32 35.426015 -119.045696 228 510ft 0kts
30-Dec-17 09:33 35.425981 -119.045742 228 510ft 4kts
30-Dec-17 09:34 35.431757 -119.053643 315 510ft 51kts
30-Dec-17 09:35 35.447470 -119.071616 317 1005ft 97kts
30-Dec-17 09:36 35.466975 -119.093915 332 1755ft 97kts
30-Dec-17 09:37 35.470632 -119.073517 119 2619ft 89kts
30-Dec-17 09:38 35.459391 -119.048013 114 3522ft 84kts
30-Dec-17 09:39 35.448236 -119.022514 108 4335ft 86kts
30-Dec-17 09:40 35.437374 -118.995973 119 5075ft 88kts
30-Dec-17 09:41 35.425677 -118.973973 113 5709ft 86kts
30-Dec-17 09:42 35.414571 -118.947339 117 6430ft 86kts
30-Dec-17 09:43 35.402960 -118.921515 116 7129ft 86kts
30-Dec-17 09:44 35.393390 -118.892224 115 7497ft 106kts
30-Dec-17 09:45 35.377518 -118.860275 124 7509ft 109kts
30-Dec-17 09:46 35.357037 -118.833200 138 7511ft 109kts
30-Dec-17 09:47 35.338979 -118.803612 118 7508ft 109kts
30-Dec-17 09:48 35.325375 -118.770260 114 7515ft 109kts
30-Dec-17 09:49 35.312269 -118.736651 112 7515ft 109kts
30-Dec-17 09:50 35.299493 -118.703123 112 7515ft 108kts
30-Dec-17 09:51 35.286621 -118.669512 115 7516ft 109kts
30-Dec-17 09:52 35.272589 -118.636798 116 7515ft 108kts
30-Dec-17 09:53 35.258477 -118.604082 116 7517ft 108kts
30-Dec-17 09:54 35.244659 -118.571581 116 7525ft 108kts
30-Dec-17 09:55 35.230848 -118.538968 116 7523ft 108kts
30-Dec-17 09:56 35.217178 -118.506235 116 7523ft 107kts
30-Dec-17 09:57 35.203681 -118.473595 116 7524ft 107kts
30-Dec-17 09:58 35.190360 -118.441085 116 7523ft 107kts
30-Dec-17 09:59 35.176967 -118.408481 116 7523ft 107kts
30-Dec-17 10:00 35.171058 -118.394084 116 7521ft 107kts
30-Dec-17 10:01 35.153614 -118.364035 127 7369ft 117kts
30-Dec-17 10:02 35.133746 -118.331667 118 6918ft 121kts
30-Dec-17 10:03 35.117225 -118.296016 120 6412ft 122kts
30-Dec-17 10:04 35.099568 -118.260488 121 5804ft 121kts
30-Dec-17 10:05 35.083979 -118.226622 118 5215ft 108kts
30-Dec-17 10:06 35.068846 -118.194184 116 4544ft 109kts
30-Dec-17 10:07 35.065619 -118.158523 90 4003ft 99kts
30-Dec-17 10:08 35.064480 -118.127132 121 3418ft 73kts
30-Dec-17 10:09 35.058999 -118.136920 276 2896ft 67kts
30-Dec-17 10:10 35.058921 -118.150759 102 2794ft 4kts
30-Dec-17 10:11 35.058169 -118.149434 133 2794ft 0kts
30-Dec-17 10:12 35.058168 -118.149433 133 2794ft 0kts
30-Dec-17 10:13 35.058168 -118.149432 133 2794ft 0kts
30-Dec-17 10:14 35.056515 -118.152227 258 2794ft 10kts
30-Dec-17 10:15 35.056506 -118.152652 267 2794ft 0kts

Navigation Log

Ident Type
1. KBFL Airport
2. KMHV Airport